New York, New York
Traffic Map
Current Weather Conditions
New York, New York
Clear
Clear
14°
Feels Like: 14°
Wind Chill: 14° Ceiling: Unl
Heat Index: 14° Visibility: 10mi
Dew Point: Wind: 0mph
Humidity: 74% Direction: ° ()
Pressure: 30.02in Gusts: 0mph
Raw Report DataKNYC 181051Z AUTO 00000KT 10SM CLR 14/09 A3002 RMK AO2 SLP156 T01390094
Traffic Incident Summary
Active as of:
Severity:
Category:
InformationThere was an issue retrieving the traffic information for this location. Please try a different location or try again shortly.
Advertisements
Track Severe Weather on mobile